createdAt,value
2024-05-09T00:02:25.636Z,7.10
2024-05-09T00:07:46.894Z,7.18
2024-05-09T00:13:08.549Z,9.38
2024-05-09T00:18:30.553Z,7.10
2024-05-09T00:23:53.027Z,8.38
2024-05-09T00:34:36.525Z,10.30
2024-05-09T00:39:57.885Z,5.63
2024-05-09T00:45:19.124Z,6.25
2024-05-09T00:50:41.662Z,5.53
2024-05-09T00:56:05.141Z,6.95
2024-05-09T01:01:27.733Z,8.40
2024-05-09T01:06:49.222Z,6.53
2024-05-09T01:12:10.707Z,8.10
2024-05-09T01:17:32.953Z,8.80
2024-05-09T01:22:54.812Z,6.85
2024-05-09T01:28:16.432Z,6.05
2024-05-09T01:33:38.660Z,5.43
2024-05-09T01:39:00.038Z,5.32
2024-05-09T01:44:21.378Z,6.38
2024-05-09T01:49:43.404Z,7.50
2024-05-09T01:55:07.151Z,7.57
2024-05-09T02:00:37.378Z,10.75
2024-05-09T02:06:02.416Z,11.10
2024-05-09T02:11:23.464Z,8.03
2024-05-09T02:16:44.779Z,8.75
2024-05-09T02:22:05.987Z,7.55
2024-05-09T02:27:27.215Z,8.18
2024-05-09T02:32:49.166Z,7.53
2024-05-09T02:38:10.813Z,7.05
2024-05-09T02:43:32.646Z,8.43
2024-05-09T02:48:53.825Z,10.77
2024-05-09T02:54:14.862Z,16.23
2024-05-09T02:59:36.197Z,26.08
2024-05-09T03:10:25.403Z,16.25
2024-05-09T03:15:50.180Z,15.02
2024-05-09T03:21:11.575Z,19.83
2024-05-09T03:26:33.413Z,9.40
2024-05-09T03:37:16.095Z,17.63
2024-05-09T03:42:41.634Z,10.48
2024-05-09T03:48:03.177Z,14.48
2024-05-09T03:53:25.574Z,13.63
2024-05-09T03:58:46.824Z,9.57
2024-05-09T04:04:09.517Z,8.20
2024-05-09T04:09:31.006Z,9.93
2024-05-09T04:14:52.373Z,12.30
2024-05-09T04:20:24.168Z,8.65
2024-05-09T04:25:54.684Z,9.30
2024-05-09T04:31:15.823Z,8.07
2024-05-09T04:36:36.976Z,9.48
2024-05-09T04:41:58.238Z,7.63
2024-05-09T04:47:21.015Z,8.60
2024-05-09T04:52:42.010Z,8.07
2024-05-09T04:58:03.998Z,6.72
2024-05-09T05:03:25.212Z,8.52
2024-05-09T05:08:47.244Z,6.25
2024-05-09T05:19:30.630Z,7.32
2024-05-09T05:24:52.351Z,8.80
2024-05-09T05:30:21.101Z,8.73
2024-05-09T05:35:47.326Z,11.43
2024-05-09T05:41:08.817Z,6.20
2024-05-09T05:46:31.406Z,10.35
2024-05-09T05:51:52.757Z,15.32
2024-05-09T06:02:36.919Z,10.88
2024-05-09T06:07:58.999Z,10.45
2024-05-09T06:18:42.004Z,11.77
2024-05-09T06:24:06.157Z,7.88
2024-05-09T06:29:27.947Z,11.85
2024-05-09T06:34:49.199Z,7.40
2024-05-09T06:45:33.668Z,7.78
2024-05-09T06:50:55.301Z,8.88
2024-05-09T06:56:16.865Z,11.63
2024-05-09T07:01:38.395Z,12.60
2024-05-09T07:06:59.543Z,6.93
2024-05-09T07:23:05.239Z,16.15
2024-05-09T07:28:26.802Z,9.38
2024-05-09T07:33:48.096Z,9.82
2024-05-09T07:44:31.271Z,9.30
2024-05-09T07:51:32.809Z,9.00
2024-05-09T08:00:56.383Z,10.32
2024-05-09T08:06:17.650Z,10.45
2024-05-09T08:11:40.148Z,8.63
2024-05-09T08:17:02.464Z,7.05
2024-05-09T08:22:23.694Z,9.27
2024-05-09T08:27:45.414Z,6.25
2024-05-09T08:33:07.735Z,7.85
2024-05-09T08:38:29.704Z,7.63
2024-05-09T08:43:51.462Z,7.35
2024-05-09T08:49:13.679Z,5.35
2024-05-09T08:54:35.686Z,6.05
2024-05-09T09:00:00.445Z,8.68
2024-05-09T09:05:23.575Z,9.07
2024-05-09T09:10:46.541Z,7.10
2024-05-09T09:16:08.242Z,7.75
2024-05-09T09:21:30.314Z,6.55
2024-05-09T09:26:52.156Z,5.53
2024-05-09T09:32:13.667Z,9.98
2024-05-09T09:42:57.760Z,6.68
2024-05-09T09:48:20.218Z,8.43
2024-05-09T09:53:42.702Z,8.93
2024-05-09T09:59:07.208Z,14.02
2024-05-09T10:04:28.360Z,7.75
2024-05-09T10:09:50.102Z,9.02
2024-05-09T10:15:11.579Z,4.35
2024-05-09T10:20:45.945Z,5.68
2024-05-09T10:26:38.716Z,4.90
2024-05-09T10:32:00.223Z,7.60
2024-05-09T10:37:22.230Z,5.05
2024-05-09T10:42:43.683Z,7.45
2024-05-09T10:48:06.073Z,4.43
2024-05-09T10:53:27.681Z,3.15
2024-05-09T10:58:52.057Z,5.88
2024-05-09T11:04:14.464Z,12.27
2024-05-09T11:09:36.529Z,7.15
2024-05-09T11:14:58.252Z,10.70
2024-05-09T11:20:26.726Z,8.95
2024-05-09T11:25:52.776Z,7.25
2024-05-09T11:31:14.509Z,7.80
2024-05-09T11:36:36.265Z,7.05
2024-05-09T11:41:57.825Z,6.82
2024-05-09T11:47:21.655Z,7.50
2024-05-09T11:52:43.021Z,8.32
2024-05-09T12:03:25.858Z,6.78
2024-05-09T12:08:47.385Z,7.25
2024-05-09T12:14:08.974Z,5.47
2024-05-09T12:19:30.484Z,6.00
2024-05-09T12:24:52.240Z,6.57
2024-05-09T12:35:51.104Z,5.78
2024-05-09T12:41:12.648Z,9.00
2024-05-09T12:46:34.007Z,6.45
2024-05-09T12:51:55.259Z,5.28
2024-05-09T12:57:16.733Z,7.70
2024-05-09T13:02:38.261Z,9.35
2024-05-09T13:08:00.697Z,8.88
2024-05-09T13:13:21.998Z,6.40
2024-05-09T13:24:06.775Z,11.32
2024-05-09T13:29:28.258Z,10.35
2024-05-09T13:40:14.230Z,10.75
2024-05-09T13:45:36.082Z,6.57
2024-05-09T13:50:57.872Z,8.55
2024-05-09T13:56:19.413Z,15.52
2024-05-09T14:01:41.441Z,7.82
2024-05-09T14:07:03.895Z,6.90
2024-05-09T14:12:24.984Z,11.98
2024-05-09T14:17:46.771Z,8.35
2024-05-09T14:23:08.380Z,9.43
2024-05-09T14:28:29.827Z,20.48
2024-05-09T14:33:51.382Z,10.85
2024-05-09T14:39:12.877Z,7.45
2024-05-09T14:44:34.044Z,8.88
2024-05-09T14:49:55.932Z,6.47
2024-05-09T15:00:45.744Z,5.20
2024-05-09T15:06:11.354Z,6.55
2024-05-09T15:11:32.829Z,7.90
2024-05-09T15:22:16.627Z,8.30
2024-05-09T15:27:37.899Z,5.72
2024-05-09T15:33:00.118Z,6.90
2024-05-09T15:38:21.751Z,5.68
2024-05-09T15:43:42.908Z,9.73
2024-05-09T15:49:04.458Z,6.63
2024-05-09T15:54:26.810Z,6.13
2024-05-09T15:59:48.280Z,4.22
2024-05-09T16:05:10.006Z,6.85
2024-05-09T16:15:56.124Z,10.07
2024-05-09T16:21:17.434Z,6.97
2024-05-09T16:26:39.002Z,6.30
2024-05-09T16:32:00.492Z,7.45
2024-05-09T16:37:24.244Z,8.98
2024-05-09T16:42:46.669Z,6.07
2024-05-09T16:48:09.004Z,6.28
2024-05-09T16:53:30.305Z,6.95
2024-05-09T17:04:12.944Z,9.00
2024-05-09T17:09:34.562Z,8.50
2024-05-09T17:14:56.672Z,4.85
2024-05-09T17:25:54.716Z,5.10
2024-05-09T17:31:15.878Z,5.60
2024-05-09T17:47:20.458Z,3.42
2024-05-09T17:52:42.028Z,5.10
2024-05-09T17:58:04.752Z,3.58
2024-05-09T18:03:27.034Z,4.63
2024-05-09T18:08:48.427Z,6.63
2024-05-09T18:19:31.198Z,3.90
2024-05-09T18:24:53.414Z,4.53
2024-05-09T18:30:24.124Z,6.55
2024-05-09T18:35:52.847Z,5.05
2024-05-09T18:46:36.775Z,5.65
2024-05-09T18:51:58.310Z,6.00
2024-05-09T18:57:19.533Z,5.82
2024-05-09T19:02:41.035Z,8.23
2024-05-09T19:08:02.898Z,6.43
2024-05-09T19:13:27.452Z,6.57
2024-05-09T19:18:51.450Z,10.07
2024-05-09T19:24:13.380Z,10.15
2024-05-09T19:29:35.035Z,9.18
2024-05-09T19:34:56.281Z,14.18
2024-05-09T19:40:24.790Z,20.65
2024-05-09T19:45:52.172Z,25.83
2024-05-09T19:51:14.036Z,63.85
2024-05-09T19:56:35.357Z,57.83
2024-05-09T20:01:58.390Z,58.40
2024-05-09T20:07:20.022Z,44.25
2024-05-09T20:12:41.570Z,39.33
2024-05-09T20:23:25.563Z,29.52
2024-05-09T20:28:46.914Z,27.40
2024-05-09T20:34:08.277Z,26.20
2024-05-09T20:39:29.463Z,24.40
2024-05-09T20:44:51.267Z,20.90
2024-05-09T20:55:50.131Z,26.58
2024-05-09T21:01:11.421Z,22.73
2024-05-09T21:11:53.977Z,29.77
2024-05-09T21:17:15.266Z,29.92
2024-05-09T21:27:59.706Z,24.98
2024-05-09T21:33:21.305Z,26.35
2024-05-09T21:38:43.507Z,28.70
2024-05-09T21:44:04.868Z,24.83
2024-05-09T21:49:26.749Z,22.50
2024-05-09T22:00:20.325Z,24.67
2024-05-09T22:05:46.377Z,26.08
2024-05-09T22:11:07.933Z,23.10
2024-05-09T22:21:50.987Z,30.07
2024-05-09T22:27:12.326Z,26.60
2024-05-09T22:32:33.708Z,28.60
2024-05-09T22:37:55.516Z,25.77
2024-05-09T22:43:19.370Z,31.27
2024-05-09T22:48:40.938Z,26.45
2024-05-09T22:54:04.270Z,24.70
2024-05-09T22:59:25.651Z,19.08
2024-05-09T23:04:47.343Z,19.58
2024-05-09T23:10:13.429Z,20.70
2024-05-09T23:15:39.261Z,20.63
2024-05-09T23:21:01.374Z,18.30
2024-05-09T23:26:22.954Z,21.55
2024-05-09T23:31:44.243Z,21.38
2024-05-09T23:37:05.522Z,19.35
2024-05-09T23:42:26.798Z,19.63
2024-05-09T23:47:48.064Z,21.75
2024-05-09T23:58:32.092Z,18.33
